Airfield :
LOGIN :

Register | Disclaimer

   EN    FR    IT 

 










Legend :    VFR   Marginal VFR   IFR   Intensive IFR   Very Intensive IFR
Visi :
Ceiling :
>= 8 km
>= 3000ft
5 to 8 km
1000 to 3000 ft
1500m to 5 km
500 to 1000 ft
800 to 1500m
200 to 500 ft
< 800m
< 200 ft
Symbols :   Thunderstorms  Fog  Heavy snow  Heavy precipitations  Wind > 20 kt
SIGMETs :     Misc.  Thunderstorms  Icing  Turbulence  Mountain Waves  Volcanic Ashes






- Airport Elevation : 75 ft
- IATA code : YEO


EGDY - RNAS Yeovilton

CURRENT METAR :
  • 230650Z 19007KT 9999 FEW010 SCT022 10/10 Q1006 WHT NOSIG RMK WHT WHT

EXPIRED METARs :
  • 230550Z 19004KT 9999 FEW014 SCT020 09/08 Q1007 WHT
  • 230450Z AUTO 23004KT 9999 FEW019/// SCT050/// 11/10 Q1007

TAF TAF EGDY
Valid from the 23 at 07:00 until the 23 at 16:00 UTC


230611Z 2307/2316 24005KT 9999 FEW010 SCT015
TEMPO 2309/2314 7000 -RA SCT012
PROB30
TEMPO 2309/2314 4000 RADZ
BECMG 2314/2316 SCT025
TEMPO 2314/2316 SCT018



MET'MAP, your aeronautical weather chart ! - Copyright ORBIFLY December 2007 - Disclaimer

ORBIFLY MET'MAP TEAM :

Programming & Development : Alexandra Zaïnal
Concept & original design : Baudouin d'Aumeries
Assistance for programming : Marc-Olivier Méhu
Technical & hardware support : Manuel Goepfert

Contact : metmap@orbifly.com




SOURCES & CREDITS :

   NOAA